sensor_id;sensor_type;location;lat;lon;timestamp;temperature;humidity
42019;DHT22;27703;51.980;5.848;2023-01-26T00:02:07;-0.30;99.90
42019;DHT22;27703;51.980;5.848;2023-01-26T00:04:32;-0.20;99.90
42019;DHT22;27703;51.980;5.848;2023-01-26T00:06:58;-0.20;99.90
42019;DHT22;27703;51.980;5.848;2023-01-26T00:09:24;-0.20;99.90
42019;DHT22;27703;51.980;5.848;2023-01-26T00:11:49;-0.20;99.90
42019;DHT22;27703;51.980;5.848;2023-01-26T00:14:15;-0.20;99.90
42019;DHT22;27703;51.980;5.848;2023-01-26T00:16:40;-0.20;99.90
42019;DHT22;27703;51.980;5.848;2023-01-26T00:19:06;-0.20;99.90
42019;DHT22;27703;51.980;5.848;2023-01-26T00:21:31;-0.20;99.90
42019;DHT22;27703;51.980;5.848;2023-01-26T00:23:57;-0.20;99.90
42019;DHT22;27703;51.980;5.848;2023-01-26T00:26:24;-0.20;99.90
42019;DHT22;27703;51.980;5.848;2023-01-26T00:28:51;-0.20;99.90
42019;DHT22;27703;51.980;5.848;2023-01-26T00:31:23;-0.20;99.90
42019;DHT22;27703;51.980;5.848;2023-01-26T00:33:49;-0.20;99.90
42019;DHT22;27703;51.980;5.848;2023-01-26T00:36:15;-0.20;99.90
42019;DHT22;27703;51.980;5.848;2023-01-26T00:38:41;-0.20;99.90
42019;DHT22;27703;51.980;5.848;2023-01-26T00:41:07;-0.30;99.90
42019;DHT22;27703;51.980;5.848;2023-01-26T00:43:32;-0.30;99.90
42019;DHT22;27703;51.980;5.848;2023-01-26T00:45:58;-0.30;99.90
42019;DHT22;27703;51.980;5.848;2023-01-26T00:48:24;-0.30;99.90
42019;DHT22;27703;51.980;5.848;2023-01-26T00:50:50;-0.30;99.90
42019;DHT22;27703;51.980;5.848;2023-01-26T00:53:16;-0.30;99.90
42019;DHT22;27703;51.980;5.848;2023-01-26T00:55:42;-0.20;99.90
42019;DHT22;27703;51.980;5.848;2023-01-26T00:58:08;-0.20;99.90
42019;DHT22;27703;51.980;5.848;2023-01-26T01:00:36;-0.20;99.90
42019;DHT22;27703;51.980;5.848;2023-01-26T01:03:02;-0.20;99.90
42019;DHT22;27703;51.980;5.848;2023-01-26T01:05:30;-0.20;99.90
42019;DHT22;27703;51.980;5.848;2023-01-26T01:07:56;-0.10;99.90
42019;DHT22;27703;51.980;5.848;2023-01-26T01:10:22;-0.10;99.90
42019;DHT22;27703;51.980;5.848;2023-01-26T01:12:47;-0.10;99.90
42019;DHT22;27703;51.980;5.848;2023-01-26T01:15:13;-0.10;99.90
42019;DHT22;27703;51.980;5.848;2023-01-26T01:17:39;-0.10;99.90
42019;DHT22;27703;51.980;5.848;2023-01-26T01:20:06;-0.10;99.90
42019;DHT22;27703;51.980;5.848;2023-01-26T01:22:32;0.00;99.90
42019;DHT22;27703;51.980;5.848;2023-01-26T01:24:58;0.00;99.90
42019;DHT22;27703;51.980;5.848;2023-01-26T01:27:23;-0.10;99.90
42019;DHT22;27703;51.980;5.848;2023-01-26T01:29:50;-0.10;99.90
42019;DHT22;27703;51.980;5.848;2023-01-26T01:32:16;0.00;99.90
42019;DHT22;27703;51.980;5.848;2023-01-26T01:34:42;0.00;99.90
42019;DHT22;27703;51.980;5.848;2023-01-26T01:37:08;0.00;99.90
42019;DHT22;27703;51.980;5.848;2023-01-26T01:39:33;0.00;99.90
42019;DHT22;27703;51.980;5.848;2023-01-26T01:41:59;0.00;99.90
42019;DHT22;27703;51.980;5.848;2023-01-26T01:44:25;0.00;99.90
42019;DHT22;27703;51.980;5.848;2023-01-26T01:46:57;0.00;99.90
42019;DHT22;27703;51.980;5.848;2023-01-26T01:49:33;0.00;99.90
42019;DHT22;27703;51.980;5.848;2023-01-26T01:52:06;0.00;99.90
42019;DHT22;27703;51.980;5.848;2023-01-26T01:57:07;0.00;99.90
42019;DHT22;27703;51.980;5.848;2023-01-26T01:59:41;0.00;99.90
42019;DHT22;27703;51.980;5.848;2023-01-26T02:02:08;0.00;99.90
42019;DHT22;27703;51.980;5.848;2023-01-26T02:04:35;0.00;99.90
42019;DHT22;27703;51.980;5.848;2023-01-26T02:07:01;0.00;99.90
42019;DHT22;27703;51.980;5.848;2023-01-26T02:09:30;0.00;99.90
42019;DHT22;27703;51.980;5.848;2023-01-26T02:12:19;0.00;99.90
42019;DHT22;27703;51.980;5.848;2023-01-26T02:14:46;0.00;99.90
42019;DHT22;27703;51.980;5.848;2023-01-26T02:17:11;0.00;99.90
42019;DHT22;27703;51.980;5.848;2023-01-26T02:20:09;0.00;99.90
42019;DHT22;27703;51.980;5.848;2023-01-26T02:25:43;0.00;99.90
42019;DHT22;27703;51.980;5.848;2023-01-26T02:28:13;0.00;99.90
42019;DHT22;27703;51.980;5.848;2023-01-26T02:30:39;0.00;99.90
42019;DHT22;27703;51.980;5.848;2023-01-26T02:33:05;0.00;99.90
42019;DHT22;27703;51.980;5.848;2023-01-26T02:35:30;0.00;99.90
42019;DHT22;27703;51.980;5.848;2023-01-26T02:37:56;0.00;99.90
42019;DHT22;27703;51.980;5.848;2023-01-26T02:40:35;0.10;99.90
42019;DHT22;27703;51.980;5.848;2023-01-26T02:43:02;0.10;99.90
42019;DHT22;27703;51.980;5.848;2023-01-26T02:45:28;0.10;99.90
42019;DHT22;27703;51.980;5.848;2023-01-26T02:47:55;0.10;99.90
42019;DHT22;27703;51.980;5.848;2023-01-26T02:50:22;0.10;99.90
42019;DHT22;27703;51.980;5.848;2023-01-26T02:52:47;0.10;99.90
42019;DHT22;27703;51.980;5.848;2023-01-26T02:55:13;0.10;99.90
42019;DHT22;27703;51.980;5.848;2023-01-26T02:57:51;0.10;99.90
42019;DHT22;27703;51.980;5.848;2023-01-26T03:00:19;0.10;99.90
42019;DHT22;27703;51.980;5.848;2023-01-26T03:02:45;0.10;99.90
42019;DHT22;27703;51.980;5.848;2023-01-26T03:05:12;0.20;99.90
42019;DHT22;27703;51.980;5.848;2023-01-26T03:07:38;0.10;99.90
42019;DHT22;27703;51.980;5.848;2023-01-26T03:10:04;0.10;99.90
42019;DHT22;27703;51.980;5.848;2023-01-26T03:12:30;0.10;99.90
42019;DHT22;27703;51.980;5.848;2023-01-26T03:14:56;0.10;99.90
42019;DHT22;27703;51.980;5.848;2023-01-26T03:17:41;0.10;99.90
42019;DHT22;27703;51.980;5.848;2023-01-26T03:20:08;0.10;99.90
42019;DHT22;27703;51.980;5.848;2023-01-26T03:22:52;0.10;99.90
42019;DHT22;27703;51.980;5.848;2023-01-26T03:25:49;0.10;99.90
42019;DHT22;27703;51.980;5.848;2023-01-26T03:28:34;0.10;99.90
42019;DHT22;27703;51.980;5.848;2023-01-26T03:30:59;0.10;99.90
42019;DHT22;27703;51.980;5.848;2023-01-26T03:33:25;0.10;99.90
42019;DHT22;27703;51.980;5.848;2023-01-26T03:35:52;0.10;99.90
42019;DHT22;27703;51.980;5.848;2023-01-26T03:38:19;0.20;99.90
42019;DHT22;27703;51.980;5.848;2023-01-26T03:40:45;0.20;99.90
42019;DHT22;27703;51.980;5.848;2023-01-26T03:43:29;0.20;99.90
42019;DHT22;27703;51.980;5.848;2023-01-26T03:46:13;0.20;99.90
42019;DHT22;27703;51.980;5.848;2023-01-26T03:48:57;0.20;99.90
42019;DHT22;27703;51.980;5.848;2023-01-26T03:51:41;0.20;99.90
42019;DHT22;27703;51.980;5.848;2023-01-26T03:54:25;0.20;99.90
42019;DHT22;27703;51.980;5.848;2023-01-26T03:57:09;0.20;99.90
42019;DHT22;27703;51.980;5.848;2023-01-26T03:59:35;0.20;99.90
42019;DHT22;27703;51.980;5.848;2023-01-26T04:02:05;0.20;99.90
42019;DHT22;27703;51.980;5.848;2023-01-26T04:04:50;0.20;99.90
42019;DHT22;27703;51.980;5.848;2023-01-26T04:07:34;0.20;99.90
42019;DHT22;27703;51.980;5.848;2023-01-26T04:10:19;0.20;99.90
42019;DHT22;27703;51.980;5.848;2023-01-26T04:12:44;0.30;99.90
42019;DHT22;27703;51.980;5.848;2023-01-26T04:15:29;0.30;99.90
42019;DHT22;27703;51.980;5.848;2023-01-26T04:18:13;0.30;99.90
42019;DHT22;27703;51.980;5.848;2023-01-26T04:20:57;0.30;99.90
42019;DHT22;27703;51.980;5.848;2023-01-26T04:23:41;0.40;99.90
42019;DHT22;27703;51.980;5.848;2023-01-26T04:26:06;0.40;99.90
42019;DHT22;27703;51.980;5.848;2023-01-26T04:28:32;0.40;99.90
42019;DHT22;27703;51.980;5.848;2023-01-26T04:30:57;0.50;99.90
42019;DHT22;27703;51.980;5.848;2023-01-26T04:33:23;0.50;99.90
42019;DHT22;27703;51.980;5.848;2023-01-26T04:35:48;0.40;99.90
42019;DHT22;27703;51.980;5.848;2023-01-26T04:38:14;0.50;99.90
42019;DHT22;27703;51.980;5.848;2023-01-26T04:40:39;0.40;99.90
42019;DHT22;27703;51.980;5.848;2023-01-26T04:43:05;0.40;99.90
42019;DHT22;27703;51.980;5.848;2023-01-26T04:45:30;0.40;99.90
42019;DHT22;27703;51.980;5.848;2023-01-26T04:47:56;0.40;99.90
42019;DHT22;27703;51.980;5.848;2023-01-26T04:50:21;0.40;99.90
42019;DHT22;27703;51.980;5.848;2023-01-26T04:52:47;0.50;99.90
42019;DHT22;27703;51.980;5.848;2023-01-26T04:55:12;0.50;99.90
42019;DHT22;27703;51.980;5.848;2023-01-26T04:57:38;0.50;99.90
42019;DHT22;27703;51.980;5.848;2023-01-26T05:00:04;0.50;99.90
42019;DHT22;27703;51.980;5.848;2023-01-26T05:02:30;0.50;99.90
42019;DHT22;27703;51.980;5.848;2023-01-26T05:04:55;0.50;99.90
42019;DHT22;27703;51.980;5.848;2023-01-26T05:07:21;0.50;99.90
42019;DHT22;27703;51.980;5.848;2023-01-26T05:09:46;0.50;99.90
42019;DHT22;27703;51.980;5.848;2023-01-26T05:12:12;0.50;99.90
42019;DHT22;27703;51.980;5.848;2023-01-26T05:14:56;0.60;99.90
42019;DHT22;27703;51.980;5.848;2023-01-26T05:17:21;0.60;99.90
42019;DHT22;27703;51.980;5.848;2023-01-26T05:19:47;0.60;99.90
42019;DHT22;27703;51.980;5.848;2023-01-26T05:22:12;0.60;99.90
42019;DHT22;27703;51.980;5.848;2023-01-26T05:24:38;0.60;99.90
42019;DHT22;27703;51.980;5.848;2023-01-26T05:27:03;0.60;99.90
42019;DHT22;27703;51.980;5.848;2023-01-26T05:29:51;0.60;99.90
42019;DHT22;27703;51.980;5.848;2023-01-26T05:32:17;0.60;99.90
42019;DHT22;27703;51.980;5.848;2023-01-26T05:34:42;0.60;99.90
42019;DHT22;27703;51.980;5.848;2023-01-26T05:37:08;0.70;99.90
42019;DHT22;27703;51.980;5.848;2023-01-26T05:39:33;0.70;99.90
42019;DHT22;27703;51.980;5.848;2023-01-26T05:41:59;0.70;99.90
42019;DHT22;27703;51.980;5.848;2023-01-26T05:44:25;0.70;99.90
42019;DHT22;27703;51.980;5.848;2023-01-26T05:46:51;0.70;99.90
42019;DHT22;27703;51.980;5.848;2023-01-26T05:49:16;0.70;99.90
42019;DHT22;27703;51.980;5.848;2023-01-26T05:51:42;0.70;99.90
42019;DHT22;27703;51.980;5.848;2023-01-26T05:54:08;0.70;99.90
42019;DHT22;27703;51.980;5.848;2023-01-26T05:56:33;0.80;99.90
42019;DHT22;27703;51.980;5.848;2023-01-26T05:58:59;0.80;99.90
42019;DHT22;27703;51.980;5.848;2023-01-26T06:01:24;0.80;99.90
42019;DHT22;27703;51.980;5.848;2023-01-26T06:03:50;0.80;99.90
42019;DHT22;27703;51.980;5.848;2023-01-26T06:06:15;0.80;99.90
42019;DHT22;27703;51.980;5.848;2023-01-26T06:08:41;0.80;99.90
42019;DHT22;27703;51.980;5.848;2023-01-26T06:11:06;0.80;99.90
42019;DHT22;27703;51.980;5.848;2023-01-26T06:13:32;0.80;99.90
42019;DHT22;27703;51.980;5.848;2023-01-26T06:16:00;0.90;99.90
42019;DHT22;27703;51.980;5.848;2023-01-26T06:18:26;0.80;99.90
42019;DHT22;27703;51.980;5.848;2023-01-26T06:20:52;0.90;99.90
42019;DHT22;27703;51.980;5.848;2023-01-26T06:23:17;0.90;99.90
42019;DHT22;27703;51.980;5.848;2023-01-26T06:25:43;0.90;99.90
42019;DHT22;27703;51.980;5.848;2023-01-26T06:28:09;0.90;99.90
42019;DHT22;27703;51.980;5.848;2023-01-26T06:30:34;0.90;99.90
42019;DHT22;27703;51.980;5.848;2023-01-26T06:33:00;0.90;99.90
42019;DHT22;27703;51.980;5.848;2023-01-26T06:35:25;0.90;99.90
42019;DHT22;27703;51.980;5.848;2023-01-26T06:37:52;0.90;99.90
42019;DHT22;27703;51.980;5.848;2023-01-26T06:40:18;0.90;99.90
42019;DHT22;27703;51.980;5.848;2023-01-26T06:42:50;0.90;99.90
42019;DHT22;27703;51.980;5.848;2023-01-26T06:45:16;0.90;99.90
42019;DHT22;27703;51.980;5.848;2023-01-26T06:47:48;1.00;99.90
42019;DHT22;27703;51.980;5.848;2023-01-26T06:50:17;1.00;99.90
42019;DHT22;27703;51.980;5.848;2023-01-26T06:52:46;1.00;99.90
42019;DHT22;27703;51.980;5.848;2023-01-26T06:55:21;1.00;99.90
42019;DHT22;27703;51.980;5.848;2023-01-26T06:57:48;1.00;99.90
42019;DHT22;27703;51.980;5.848;2023-01-26T07:00:14;1.00;99.90
42019;DHT22;27703;51.980;5.848;2023-01-26T07:02:39;1.00;99.90
42019;DHT22;27703;51.980;5.848;2023-01-26T07:05:05;1.00;99.90
42019;DHT22;27703;51.980;5.848;2023-01-26T07:07:31;1.00;99.90
42019;DHT22;27703;51.980;5.848;2023-01-26T07:09:57;1.00;99.90
42019;DHT22;27703;51.980;5.848;2023-01-26T07:12:22;1.00;99.90
42019;DHT22;27703;51.980;5.848;2023-01-26T07:14:48;1.00;99.90
42019;DHT22;27703;51.980;5.848;2023-01-26T07:17:15;1.00;99.90
42019;DHT22;27703;51.980;5.848;2023-01-26T07:19:41;1.10;99.90
42019;DHT22;27703;51.980;5.848;2023-01-26T07:22:07;1.00;99.90
42019;DHT22;27703;51.980;5.848;2023-01-26T07:24:32;1.00;99.90
42019;DHT22;27703;51.980;5.848;2023-01-26T07:26:58;1.00;99.90
42019;DHT22;27703;51.980;5.848;2023-01-26T07:29:24;1.00;99.90
42019;DHT22;27703;51.980;5.848;2023-01-26T07:31:49;1.10;99.90
42019;DHT22;27703;51.980;5.848;2023-01-26T07:34:15;1.10;99.90
42019;DHT22;27703;51.980;5.848;2023-01-26T07:36:40;1.10;99.90
42019;DHT22;27703;51.980;5.848;2023-01-26T07:39:06;1.10;99.90
42019;DHT22;27703;51.980;5.848;2023-01-26T07:41:31;1.10;99.90
42019;DHT22;27703;51.980;5.848;2023-01-26T07:43:57;1.10;99.90
42019;DHT22;27703;51.980;5.848;2023-01-26T07:46:23;1.20;99.90
42019;DHT22;27703;51.980;5.848;2023-01-26T07:48:49;1.10;99.90
42019;DHT22;27703;51.980;5.848;2023-01-26T07:51:14;1.20;99.90
42019;DHT22;27703;51.980;5.848;2023-01-26T07:53:40;1.20;99.90
42019;DHT22;27703;51.980;5.848;2023-01-26T07:56:15;1.20;99.90
42019;DHT22;27703;51.980;5.848;2023-01-26T07:58:41;1.20;99.90
42019;DHT22;27703;51.980;5.848;2023-01-26T08:01:09;1.20;99.90
42019;DHT22;27703;51.980;5.848;2023-01-26T08:03:35;1.20;99.90
42019;DHT22;27703;51.980;5.848;2023-01-26T08:06:01;1.20;99.90
42019;DHT22;27703;51.980;5.848;2023-01-26T08:08:27;1.20;99.90
42019;DHT22;27703;51.980;5.848;2023-01-26T08:10:57;1.20;99.90
42019;DHT22;27703;51.980;5.848;2023-01-26T08:13:23;1.30;99.90
42019;DHT22;27703;51.980;5.848;2023-01-26T08:15:48;1.30;99.90
42019;DHT22;27703;51.980;5.848;2023-01-26T08:18:14;1.30;99.90
42019;DHT22;27703;51.980;5.848;2023-01-26T08:20:39;1.30;99.90
42019;DHT22;27703;51.980;5.848;2023-01-26T08:23:05;1.30;99.90
42019;DHT22;27703;51.980;5.848;2023-01-26T08:25:30;1.30;99.90
42019;DHT22;27703;51.980;5.848;2023-01-26T08:27:58;1.40;99.90
42019;DHT22;27703;51.980;5.848;2023-01-26T08:30:23;1.40;99.90
42019;DHT22;27703;51.980;5.848;2023-01-26T08:32:49;1.40;99.90
42019;DHT22;27703;51.980;5.848;2023-01-26T08:35:14;1.40;99.90
42019;DHT22;27703;51.980;5.848;2023-01-26T08:37:40;1.40;99.90
42019;DHT22;27703;51.980;5.848;2023-01-26T08:40:06;1.50;99.90
42019;DHT22;27703;51.980;5.848;2023-01-26T08:42:32;1.50;99.90
42019;DHT22;27703;51.980;5.848;2023-01-26T08:44:57;1.50;99.90
42019;DHT22;27703;51.980;5.848;2023-01-26T08:47:23;1.50;99.90
42019;DHT22;27703;51.980;5.848;2023-01-26T08:49:48;1.50;99.90
42019;DHT22;27703;51.980;5.848;2023-01-26T08:52:14;1.60;99.90
42019;DHT22;27703;51.980;5.848;2023-01-26T08:54:39;1.60;99.90
42019;DHT22;27703;51.980;5.848;2023-01-26T08:57:05;1.60;99.90
42019;DHT22;27703;51.980;5.848;2023-01-26T08:59:30;1.60;99.90
42019;DHT22;27703;51.980;5.848;2023-01-26T09:01:56;1.60;99.90
42019;DHT22;27703;51.980;5.848;2023-01-26T09:04:21;1.60;99.90
42019;DHT22;27703;51.980;5.848;2023-01-26T09:06:47;1.70;99.90
42019;DHT22;27703;51.980;5.848;2023-01-26T09:09:12;1.60;99.90
42019;DHT22;27703;51.980;5.848;2023-01-26T09:11:41;1.70;99.90
42019;DHT22;27703;51.980;5.848;2023-01-26T09:14:06;1.70;99.90
42019;DHT22;27703;51.980;5.848;2023-01-26T09:16:32;1.70;99.90
42019;DHT22;27703;51.980;5.848;2023-01-26T09:18:57;1.70;99.90
42019;DHT22;27703;51.980;5.848;2023-01-26T09:21:23;1.70;99.90
42019;DHT22;27703;51.980;5.848;2023-01-26T09:23:49;1.70;99.90
42019;DHT22;27703;51.980;5.848;2023-01-26T09:26:14;1.70;99.90
42019;DHT22;27703;51.980;5.848;2023-01-26T09:28:40;1.70;99.90
42019;DHT22;27703;51.980;5.848;2023-01-26T09:31:08;1.80;99.90
42019;DHT22;27703;51.980;5.848;2023-01-26T09:33:35;1.80;99.90
42019;DHT22;27703;51.980;5.848;2023-01-26T09:36:09;1.80;99.90
42019;DHT22;27703;51.980;5.848;2023-01-26T09:38:35;1.80;99.90
42019;DHT22;27703;51.980;5.848;2023-01-26T09:43:52;1.80;99.90
42019;DHT22;27703;51.980;5.848;2023-01-26T09:49:17;1.90;99.90
42019;DHT22;27703;51.980;5.848;2023-01-26T09:51:57;1.90;99.90
42019;DHT22;27703;51.980;5.848;2023-01-26T09:54:39;1.90;99.90
42019;DHT22;27703;51.980;5.848;2023-01-26T09:57:33;1.90;99.90
42019;DHT22;27703;51.980;5.848;2023-01-26T10:05:03;2.00;99.90
42019;DHT22;27703;51.980;5.848;2023-01-26T10:07:31;2.00;99.90
42019;DHT22;27703;51.980;5.848;2023-01-26T10:09:57;2.00;99.90
42019;DHT22;27703;51.980;5.848;2023-01-26T10:12:31;2.10;99.90
42019;DHT22;27703;51.980;5.848;2023-01-26T10:15:20;2.20;99.90
42019;DHT22;27703;51.980;5.848;2023-01-26T10:17:49;2.20;99.90
42019;DHT22;27703;51.980;5.848;2023-01-26T10:20:26;2.20;99.90
42019;DHT22;27703;51.980;5.848;2023-01-26T10:23:23;2.30;99.90
42019;DHT22;27703;51.980;5.848;2023-01-26T10:25:50;2.30;99.90
42019;DHT22;27703;51.980;5.848;2023-01-26T10:28:18;2.40;99.90
42019;DHT22;27703;51.980;5.848;2023-01-26T10:30:47;2.50;99.90
42019;DHT22;27703;51.980;5.848;2023-01-26T10:33:19;2.50;99.90
42019;DHT22;27703;51.980;5.848;2023-01-26T10:35:47;2.60;99.90
42019;DHT22;27703;51.980;5.848;2023-01-26T10:38:46;2.70;99.90
42019;DHT22;27703;51.980;5.848;2023-01-26T10:43:51;2.90;99.90
42019;DHT22;27703;51.980;5.848;2023-01-26T10:46:28;3.00;99.90
42019;DHT22;27703;51.980;5.848;2023-01-26T10:48:57;3.00;99.90
42019;DHT22;27703;51.980;5.848;2023-01-26T10:51:31;3.00;99.90
42019;DHT22;27703;51.980;5.848;2023-01-26T10:54:23;3.10;99.90
42019;DHT22;27703;51.980;5.848;2023-01-26T10:59:54;3.30;99.90
42019;DHT22;27703;51.980;5.848;2023-01-26T11:05:14;3.50;99.90
42019;DHT22;27703;51.980;5.848;2023-01-26T11:07:41;3.60;99.90
42019;DHT22;27703;51.980;5.848;2023-01-26T11:10:24;3.70;99.90
42019;DHT22;27703;51.980;5.848;2023-01-26T11:15:35;3.90;99.90
42019;DHT22;27703;51.980;5.848;2023-01-26T11:18:10;4.00;99.90
42019;DHT22;27703;51.980;5.848;2023-01-26T11:21:33;4.10;99.90
42019;DHT22;27703;51.980;5.848;2023-01-26T11:23:40;4.20;99.90
42019;DHT22;27703;51.980;5.848;2023-01-26T11:31:36;4.50;99.90
42019;DHT22;27703;51.980;5.848;2023-01-26T11:36:57;4.70;99.90
42019;DHT22;27703;51.980;5.848;2023-01-26T11:48:03;5.10;99.90
42019;DHT22;27703;51.980;5.848;2023-01-26T11:51:16;5.20;99.90
42019;DHT22;27703;51.980;5.848;2023-01-26T11:56:09;5.50;99.90
42019;DHT22;27703;51.980;5.848;2023-01-26T11:58:41;5.60;99.90
42019;DHT22;27703;51.980;5.848;2023-01-26T12:01:18;5.70;99.90
42019;DHT22;27703;51.980;5.848;2023-01-26T12:03:48;5.90;99.90
42019;DHT22;27703;51.980;5.848;2023-01-26T12:06:17;5.90;99.90
42019;DHT22;27703;51.980;5.848;2023-01-26T12:08:49;6.00;99.90
42019;DHT22;27703;51.980;5.848;2023-01-26T12:11:22;6.10;99.90
42019;DHT22;27703;51.980;5.848;2023-01-26T12:16:34;6.40;99.90
42019;DHT22;27703;51.980;5.848;2023-01-26T12:19:10;6.50;99.90
42019;DHT22;27703;51.980;5.848;2023-01-26T12:21:42;6.60;99.90
42019;DHT22;27703;51.980;5.848;2023-01-26T12:24:13;6.60;99.90
42019;DHT22;27703;51.980;5.848;2023-01-26T12:26:46;6.70;99.90
42019;DHT22;27703;51.980;5.848;2023-01-26T12:29:21;6.80;99.90
42019;DHT22;27703;51.980;5.848;2023-01-26T12:31:58;6.90;99.90
42019;DHT22;27703;51.980;5.848;2023-01-26T12:34:30;7.00;99.90
42019;DHT22;27703;51.980;5.848;2023-01-26T12:42:38;6.90;99.90
42019;DHT22;27703;51.980;5.848;2023-01-26T12:45:27;7.00;99.90
42019;DHT22;27703;51.980;5.848;2023-01-26T12:48:06;7.10;99.90
42019;DHT22;27703;51.980;5.848;2023-01-26T12:50:45;7.20;99.90
42019;DHT22;27703;51.980;5.848;2023-01-26T12:53:33;7.30;99.90
42019;DHT22;27703;51.980;5.848;2023-01-26T12:56:16;7.40;99.90
42019;DHT22;27703;51.980;5.848;2023-01-26T12:58:45;7.50;99.90
42019;DHT22;27703;51.980;5.848;2023-01-26T13:01:20;7.60;99.90
42019;DHT22;27703;51.980;5.848;2023-01-26T13:03:56;7.70;99.90
42019;DHT22;27703;51.980;5.848;2023-01-26T13:06:25;7.80;99.90
42019;DHT22;27703;51.980;5.848;2023-01-26T13:09:16;7.90;99.90
42019;DHT22;27703;51.980;5.848;2023-01-26T13:11:44;7.90;99.90
42019;DHT22;27703;51.980;5.848;2023-01-26T13:14:33;7.90;99.90
42019;DHT22;27703;51.980;5.848;2023-01-26T13:25:16;7.90;99.90
42019;DHT22;27703;51.980;5.848;2023-01-26T13:27:55;7.80;99.90
42019;DHT22;27703;51.980;5.848;2023-01-26T13:32:51;7.80;99.90
42019;DHT22;27703;51.980;5.848;2023-01-26T13:35:24;7.90;99.90
42019;DHT22;27703;51.980;5.848;2023-01-26T13:38:01;8.10;99.90
42019;DHT22;27703;51.980;5.848;2023-01-26T13:40:34;8.10;99.90
42019;DHT22;27703;51.980;5.848;2023-01-26T13:43:25;7.90;99.90
42019;DHT22;27703;51.980;5.848;2023-01-26T13:46:30;7.80;99.90
42019;DHT22;27703;51.980;5.848;2023-01-26T13:48:59;7.70;99.90
42019;DHT22;27703;51.980;5.848;2023-01-26T13:51:28;7.60;99.90
42019;DHT22;27703;51.980;5.848;2023-01-26T13:56:37;7.50;99.90
42019;DHT22;27703;51.980;5.848;2023-01-26T13:59:16;7.50;99.90
42019;DHT22;27703;51.980;5.848;2023-01-26T14:04:18;7.60;99.90
42019;DHT22;27703;51.980;5.848;2023-01-26T14:06:54;7.60;99.90
42019;DHT22;27703;51.980;5.848;2023-01-26T14:09:21;7.60;99.90
42019;DHT22;27703;51.980;5.848;2023-01-26T14:12:02;7.50;99.90
42019;DHT22;27703;51.980;5.848;2023-01-26T14:14:31;7.40;99.90
42019;DHT22;27703;51.980;5.848;2023-01-26T14:16:58;7.40;99.90
42019;DHT22;27703;51.980;5.848;2023-01-26T14:19:26;7.40;99.90
42019;DHT22;27703;51.980;5.848;2023-01-26T14:21:54;7.40;99.90
42019;DHT22;27703;51.980;5.848;2023-01-26T14:24:34;7.40;99.90
42019;DHT22;27703;51.980;5.848;2023-01-26T14:27:01;7.40;99.90
42019;DHT22;27703;51.980;5.848;2023-01-26T14:29:29;7.30;99.90
42019;DHT22;27703;51.980;5.848;2023-01-26T14:31:59;7.30;99.90
42019;DHT22;27703;51.980;5.848;2023-01-26T14:34:29;7.30;99.90
42019;DHT22;27703;51.980;5.848;2023-01-26T14:37:13;7.40;99.90
42019;DHT22;27703;51.980;5.848;2023-01-26T14:39:39;7.50;99.90
42019;DHT22;27703;51.980;5.848;2023-01-26T14:42:13;7.60;99.90
42019;DHT22;27703;51.980;5.848;2023-01-26T14:44:39;7.50;99.90
42019;DHT22;27703;51.980;5.848;2023-01-26T14:47:27;7.50;99.90
42019;DHT22;27703;51.980;5.848;2023-01-26T14:50:03;7.40;99.90
42019;DHT22;27703;51.980;5.848;2023-01-26T14:52:35;7.40;99.90
42019;DHT22;27703;51.980;5.848;2023-01-26T14:55:19;7.30;99.90
42019;DHT22;27703;51.980;5.848;2023-01-26T14:57:45;7.30;99.90
42019;DHT22;27703;51.980;5.848;2023-01-26T15:00:32;7.20;99.90
42019;DHT22;27703;51.980;5.848;2023-01-26T15:03:00;7.20;99.90
42019;DHT22;27703;51.980;5.848;2023-01-26T15:05:36;7.20;99.90
42019;DHT22;27703;51.980;5.848;2023-01-26T15:08:05;7.20;99.90
42019;DHT22;27703;51.980;5.848;2023-01-26T15:10:59;7.20;99.90
42019;DHT22;27703;51.980;5.848;2023-01-26T15:13:51;7.20;99.90
42019;DHT22;27703;51.980;5.848;2023-01-26T15:16:24;7.10;99.90
42019;DHT22;27703;51.980;5.848;2023-01-26T15:19:01;7.10;99.90
42019;DHT22;27703;51.980;5.848;2023-01-26T15:21:35;7.10;99.90
42019;DHT22;27703;51.980;5.848;2023-01-26T15:24:04;7.00;99.90
42019;DHT22;27703;51.980;5.848;2023-01-26T15:26:32;7.00;99.90
42019;DHT22;27703;51.980;5.848;2023-01-26T15:29:02;7.00;99.90
42019;DHT22;27703;51.980;5.848;2023-01-26T15:31:32;7.00;99.90
42019;DHT22;27703;51.980;5.848;2023-01-26T15:33:58;7.00;99.90
42019;DHT22;27703;51.980;5.848;2023-01-26T15:39:02;6.90;99.90
42019;DHT22;27703;51.980;5.848;2023-01-26T15:41:28;6.90;99.90
42019;DHT22;27703;51.980;5.848;2023-01-26T15:43:55;6.90;99.90
42019;DHT22;27703;51.980;5.848;2023-01-26T15:46:21;6.90;99.90
42019;DHT22;27703;51.980;5.848;2023-01-26T15:48:47;6.90;99.90
42019;DHT22;27703;51.980;5.848;2023-01-26T15:51:13;6.80;99.90
42019;DHT22;27703;51.980;5.848;2023-01-26T15:53:39;6.90;99.90
42019;DHT22;27703;51.980;5.848;2023-01-26T15:56:05;6.90;99.90
42019;DHT22;27703;51.980;5.848;2023-01-26T15:58:31;6.80;99.90
42019;DHT22;27703;51.980;5.848;2023-01-26T16:00:59;6.80;99.90
42019;DHT22;27703;51.980;5.848;2023-01-26T16:03:25;6.80;99.90
42019;DHT22;27703;51.980;5.848;2023-01-26T16:05:51;6.80;99.90
42019;DHT22;27703;51.980;5.848;2023-01-26T16:08:17;6.80;99.90
42019;DHT22;27703;51.980;5.848;2023-01-26T16:10:43;6.70;99.90
42019;DHT22;27703;51.980;5.848;2023-01-26T16:13:17;6.70;99.90
42019;DHT22;27703;51.980;5.848;2023-01-26T16:15:49;6.70;99.90
42019;DHT22;27703;51.980;5.848;2023-01-26T16:18:15;6.70;99.90
42019;DHT22;27703;51.980;5.848;2023-01-26T16:20:43;6.70;99.90
42019;DHT22;27703;51.980;5.848;2023-01-26T16:23:24;6.70;99.90
42019;DHT22;27703;51.980;5.848;2023-01-26T16:25:50;6.70;99.90
42019;DHT22;27703;51.980;5.848;2023-01-26T16:28:16;6.70;99.90
42019;DHT22;27703;51.980;5.848;2023-01-26T16:30:43;6.70;99.90
42019;DHT22;27703;51.980;5.848;2023-01-26T16:33:14;6.70;99.90
42019;DHT22;27703;51.980;5.848;2023-01-26T16:35:40;6.70;99.90
42019;DHT22;27703;51.980;5.848;2023-01-26T16:38:06;6.70;99.90
42019;DHT22;27703;51.980;5.848;2023-01-26T16:40:41;6.70;99.90
42019;DHT22;27703;51.980;5.848;2023-01-26T16:43:18;6.70;99.90
42019;DHT22;27703;51.980;5.848;2023-01-26T16:45:44;6.70;99.90
42019;DHT22;27703;51.980;5.848;2023-01-26T16:48:14;6.60;99.90
42019;DHT22;27703;51.980;5.848;2023-01-26T16:50:42;6.60;99.90
42019;DHT22;27703;51.980;5.848;2023-01-26T16:53:30;6.70;99.90
42019;DHT22;27703;51.980;5.848;2023-01-26T16:55:57;6.70;99.90
42019;DHT22;27703;51.980;5.848;2023-01-26T16:58:23;6.60;99.90
42019;DHT22;27703;51.980;5.848;2023-01-26T17:00:53;6.60;99.90
42019;DHT22;27703;51.980;5.848;2023-01-26T17:03:19;6.60;99.90
42019;DHT22;27703;51.980;5.848;2023-01-26T17:05:45;6.60;99.90
42019;DHT22;27703;51.980;5.848;2023-01-26T17:08:10;6.60;99.90
42019;DHT22;27703;51.980;5.848;2023-01-26T17:10:36;6.60;99.90
42019;DHT22;27703;51.980;5.848;2023-01-26T17:13:02;6.50;99.90
42019;DHT22;27703;51.980;5.848;2023-01-26T17:15:28;6.50;99.90
42019;DHT22;27703;51.980;5.848;2023-01-26T17:17:54;6.50;99.90